San Juan Enterprise — WDD9563 — position and weather

sailwx.info

Track history (hours):
 
Tides and Currents Weather Stations Pressure Air Temp Water Temp Dewpoint Dewpoint Depression Visibility Wind Speed Wind Dir Waves Ship Positions

San Juan Enterprise

Owner: SAN JUAN MARINE FREIGHT CO LLC, ANACORTES, WA. More information available from US FCC via Universal Licensing System and Coast Guard Vessel Documentation Center.

Last reported at 2017-Oct-20 20:00 UTC. Time now 2017-Oct-20 20:09 UTC.
Position N 48°32' W 122°37'.

Length 30 m.

MMSI: 367313160.

Date/timePositionNaut miles runAvg speedWind from/ knotsBaromVisibWave heightAir tempDewpointWater temp
2017-Oct-20 20:00N 48°32' W 122°37'1 1.4
2017-Oct-20 19:30N 48°31' W 122°38'4 8.8
2017-Oct-20 19:00N 48°32' W 122°44'4 8.0
2017-Oct-20 18:30N 48°33' W 122°50'2 4.7
2017-Oct-20 18:00N 48°33' W 122°53'0 0.0
2017-Oct-20 17:30N 48°33' W 122°53'0 0.0
2017-Oct-20 17:00N 48°33' W 122°53'1 1.5
2017-Oct-20 16:30N 48°34' W 122°53'4 8.0
2017-Oct-20 16:00N 48°32' W 122°49'4 8.5
2017-Oct-20 15:30N 48°32' W 122°42'4 7.9
2017-Oct-20 15:00N 48°31' W 122°36'0 0.1
2017-Oct-20 14:21N 48°31' W 122°36'0 0.0
2017-Oct-20 10:27N 48°31' W 122°36'0 0.0
2017-Oct-20 09:51N 48°31' W 122°36'0 0.0
2017-Oct-20 08:57N 48°31' W 122°36'0 0.0
2017-Oct-20 08:27N 48°31' W 122°36'0 0.0
2017-Oct-20 01:24N 48°31' W 122°36'2 5.7
2017-Oct-20 01:00N 48°31' W 122°40'4 8.8
2017-Oct-20 00:30N 48°30' W 122°46'2 4.2
2017-Oct-20 00:00N 48°32' W 122°48'5 9.1
2017-Oct-19 23:30N 48°35' W 122°54'4 8.5
2017-Oct-19 23:00N 48°36' W 122°60'5 9.1
2017-Oct-19 22:25N 48°37' W 123°08'1 3.6
2017-Oct-19 22:00N 48°36' W 123°09'1 1.2
2017-Oct-19 21:30N 48°37' W 123°09'3 7.0
2017-Oct-19 21:00N 48°37' W 123°04'4 8.9
2017-Oct-19 20:30N 48°36' W 122°58'5 9.2
2017-Oct-19 20:00N 48°34' W 122°51'4 7.4
2017-Oct-19 19:30N 48°33' W 122°46'4 8.2
2017-Oct-19 19:00N 48°32' W 122°40'3 2.6
2017-Oct-19 18:02N 48°31' W 122°36'0 0.7
2017-Oct-19 17:59N 48°31' W 122°36'0 0.0
2017-Oct-19 17:05N 48°31' W 122°36'0 0.0
2017-Oct-19 16:53N 48°31' W 122°36'0 0.0
2017-Oct-19 16:29N 48°31' W 122°36'0 0.0
2017-Oct-19 10:46N 48°31' W 122°36'0 0.0
2017-Oct-19 10:28N 48°31' W 122°36'0 0.0
2017-Oct-19 09:01N 48°31' W 122°36'0 0.0
2017-Oct-19 07:46N 48°31' W 122°36'0 0.0
2017-Oct-19 05:19N 48°31' W 122°36'0 0.0
2017-Oct-19 04:58N 48°31' W 122°36'0 0.0
2017-Oct-19 03:25N 48°31' W 122°36'0 0.0
2017-Oct-19 02:49N 48°31' W 122°36'0 0.0
2017-Oct-19 02:25N 48°31' W 122°36'0 0.0
2017-Oct-19 01:43N 48°31' W 122°36'0 0.0
2017-Oct-18 11:34N 48°31' W 122°36'0 0.0
2017-Oct-18 11:28N 48°31' W 122°36'0 0.0
2017-Oct-18 10:58N 48°31' W 122°36'0 0.0
2017-Oct-18 08:10N 48°31' W 122°36'0 0.0
2017-Oct-18 07:58N 48°31' W 122°36'0 0.0
2017-Oct-18 07:28N 48°31' W 122°36'0 0.0
2017-Oct-18 06:58N 48°31' W 122°36'0 0.0
2017-Oct-18 02:40N 48°31' W 122°36'0 0.0
2017-Oct-18 02:22N 48°31' W 122°36'0 0.0
2017-Oct-18 01:31N 48°31' W 122°36'0 0.0
2017-Oct-18 01:13N 48°31' W 122°36'0 0.0
2017-Oct-18 00:43N 48°31' W 122°36'0 0.0
2017-Oct-17 23:40N 48°31' W 122°36'0 0.0
2017-Oct-17 20:13N 48°31' W 122°36'0 0.2
2017-Oct-17 19:59N 48°31' W 122°36'0 0.0
2017-Oct-17 19:25N 48°31' W 122°36'4 8.8
2017-Oct-17 19:00N 48°31' W 122°42'4 7.5
2017-Oct-17 18:30N 48°31' W 122°47'0 0.0
2017-Oct-17 18:00N 48°31' W 122°47'0 0.0
2017-Oct-17 17:30N 48°31' W 122°47'0 0.4
2017-Oct-17 17:00N 48°31' W 122°47'4 7.3
2017-Oct-17 16:30N 48°32' W 122°42'3 6.5
2017-Oct-17 16:00N 48°31' W 122°37'1 0.1
2017-Oct-17 02:30N 48°31' W 122°36'1 1.0
2017-Oct-17 02:00N 48°31' W 122°37'4 7.6
2017-Oct-17 01:30N 48°32' W 122°43'4 8.6
2017-Oct-17 01:00N 48°32' W 122°49'5 9.2
2017-Oct-17 00:30N 48°35' W 122°55'5 9.4
2017-Oct-17 00:00N 48°36' W 123°02'5 8.7
2017-Oct-16 23:28N 48°38' W 123°08'1 2.7
2017-Oct-16 23:01N 48°36' W 123°09'1 2.2
2017-Oct-16 22:28N 48°38' W 123°08'4 9.1
2017-Oct-16 22:00N 48°36' W 123°02'4 8.8
2017-Oct-16 21:30N 48°35' W 122°56'5 9.4
2017-Oct-16 21:00N 48°33' W 122°50'5 9.0
2017-Oct-16 20:30N 48°31' W 122°44'4 7.4
2017-Oct-16 20:00N 48°31' W 122°38'1 0.1
2017-Oct-16 11:22N 48°31' W 122°36'0 0.0
2017-Oct-15 10:28N 48°31' W 122°36'0 0.0
2017-Oct-15 09:58N 48°31' W 122°36'0 0.0
2017-Oct-15 09:22N 48°31' W 122°36'0 0.0
2017-Oct-15 08:10N 48°31' W 122°36'0 0.0
2017-Oct-15 04:40N 48°31' W 122°36'0 0.0
2017-Oct-15 02:28N 48°31' W 122°36'0 0.0
2017-Oct-14 15:58N 48°31' W 122°36'0 0.0
2017-Oct-14 11:22N 48°31' W 122°36'0 0.0
2017-Oct-14 10:58N 48°31' W 122°36'0 0.0
2017-Oct-14 10:28N 48°31' W 122°36'0 0.0
2017-Oct-14 09:58N 48°31' W 122°36'0 0.0
2017-Oct-14 05:40N 48°31' W 122°36'0 0.0
2017-Oct-14 05:10N 48°31' W 122°36'0 0.0
2017-Oct-14 00:19N 48°31' W 122°36'0 0.0
2017-Oct-13 23:49N 48°31' W 122°36'2 5.7
2017-Oct-13 23:30N 48°32' W 122°39'4 8.2
2017-Oct-13 23:00N 48°32' W 122°45'4 7.9
2017-Oct-13 22:30N 48°33' W 122°51'4 8.6
2017-Oct-13 22:00N 48°35' W 122°56'3 6.4
2017-Oct-13 21:30N 48°37' W 123°00'2 3.1
2017-Oct-13 21:00N 48°36' W 123°01'1 2.8
2017-Oct-13 20:30N 48°37' W 123°00'3 5.7
2017-Oct-13 20:00N 48°34' W 123°01'3 5.4
2017-Oct-13 19:30N 48°32' W 123°00'3 6.3
2017-Oct-13 19:00N 48°33' W 122°56'3 6.8
2017-Oct-13 18:30N 48°33' W 122°51'4 8.5
2017-Oct-13 18:00N 48°31' W 122°45'4 7.9
2017-Oct-13 17:29N 48°31' W 122°39'2 0.1
2017-Oct-12 23:47N 48°31' W 122°36'0 0.0
2017-Oct-12 23:17N 48°31' W 122°36'0 0.0
2017-Oct-12 22:04N 48°31' W 122°36'0 0.0
2017-Oct-12 21:55N 48°31' W 122°36'0 0.8
2017-Oct-12 21:25N 48°31' W 122°37'3 7.7
2017-Oct-12 21:00N 48°30' W 122°42'4 7.4
2017-Oct-12 20:30N 48°27' W 122°41'2 0.7
2017-Oct-12 18:04N 48°25' W 122°40'1 8.5
2017-Oct-12 18:00N 48°25' W 122°41'4 7.7
2017-Oct-12 17:30N 48°29' W 122°41'2 4.2
2017-Oct-12 17:00N 48°31' W 122°39'2 3.1
2017-Oct-12 16:30N 48°31' W 122°37'0 0.1
2017-Oct-12 16:00N 48°31' W 122°37'0 0.3
2017-Oct-12 14:31N 48°31' W 122°36'0 0.0
2017-Oct-12 06:19N 48°31' W 122°36'0 0.0
2017-Oct-12 00:31N 48°31' W 122°36'0 0.0
2017-Oct-12 00:29N 48°31' W 122°36'3 5.6
2017-Oct-12 00:00N 48°32' W 122°40'4 8.5
2017-Oct-11 23:30N 48°32' W 122°47'2 4.0
2017-Oct-11 23:00N 48°33' W 122°49'2 3.7
2017-Oct-11 22:30N 48°35' W 122°49'2 4.9
2017-Oct-11 22:00N 48°34' W 122°45'4 7.1
2017-Oct-11 21:30N 48°32' W 122°41'3 4.3
2017-Oct-11 20:42N 48°31' W 122°36'1 6.7
2017-Oct-11 20:30N 48°31' W 122°38'4 8.6
2017-Oct-11 20:00N 48°32' W 122°45'4 8.0
2017-Oct-11 19:30N 48°33' W 122°51'4 7.0
2017-Oct-11 19:00N 48°33' W 122°56'3 6.2
2017-Oct-11 18:30N 48°32' W 123°00'0 0.0
2017-Oct-11 18:00N 48°32' W 123°00'0 0.0
2017-Oct-11 17:30N 48°32' W 123°00'0 0.0
2017-Oct-11 17:00N 48°32' W 123°00'8 0.5
2017-Oct-11 00:00N 48°35' W 122°49'0 0.6
2017-Oct-10 23:30N 48°35' W 122°49'2 3.7
2017-Oct-10 23:00N 48°36' W 122°47'4 8.0
2017-Oct-10 22:30N 48°35' W 122°41'4 7.9
2017-Oct-10 22:00N 48°31' W 122°39'1 2.5
2017-Oct-10 21:29N 48°31' W 122°37'3 6.2
2017-Oct-10 21:00N 48°34' W 122°40'4 7.5
2017-Oct-10 20:30N 48°37' W 122°42'2 4.7
2017-Oct-10 20:00N 48°36' W 122°45'  
Track history (hours):
 
Tides and Currents Weather Stations Pressure Air Temp Water Temp Dewpoint Dewpoint Depression Visibility Wind Speed Wind Dir Waves Ship Positions

San Juan Enterprise

Owner: SAN JUAN MARINE FREIGHT CO LLC, ANACORTES, WA. More information available from US FCC via Universal Licensing System and Coast Guard Vessel Documentation Center.

Last reported at 2017-Oct-20 20:00 UTC. Time now 2017-Oct-20 20:09 UTC.
Position N 48°32' W 122°37'.

Length 30 m.

MMSI: 367313160.

Date/timePositionNaut miles runAvg speedWind from/ knotsBaromVisibWave heightAir tempDewpointWater temp
2017-Oct-20 20:00N 48°32' W 122°37'1 1.4
2017-Oct-20 19:30N 48°31' W 122°38'4 8.8
2017-Oct-20 19:00N 48°32' W 122°44'4 8.0
2017-Oct-20 18:30N 48°33' W 122°50'2 4.7
2017-Oct-20 18:00N 48°33' W 122°53'0 0.0
2017-Oct-20 17:30N 48°33' W 122°53'0 0.0
2017-Oct-20 17:00N 48°33' W 122°53'1 1.5
2017-Oct-20 16:30N 48°34' W 122°53'4 8.0
2017-Oct-20 16:00N 48°32' W 122°49'4 8.5
2017-Oct-20 15:30N 48°32' W 122°42'4 7.9
2017-Oct-20 15:00N 48°31' W 122°36'0 0.1
2017-Oct-20 14:21N 48°31' W 122°36'0 0.0
2017-Oct-20 10:27N 48°31' W 122°36'0 0.0
2017-Oct-20 09:51N 48°31' W 122°36'0 0.0
2017-Oct-20 08:57N 48°31' W 122°36'0 0.0
2017-Oct-20 08:27N 48°31' W 122°36'0 0.0
2017-Oct-20 01:24N 48°31' W 122°36'2 5.7
2017-Oct-20 01:00N 48°31' W 122°40'4 8.8
2017-Oct-20 00:30N 48°30' W 122°46'2 4.2
2017-Oct-20 00:00N 48°32' W 122°48'5 9.1
2017-Oct-19 23:30N 48°35' W 122°54'4 8.5
2017-Oct-19 23:00N 48°36' W 122°60'5 9.1
2017-Oct-19 22:25N 48°37' W 123°08'1 3.6
2017-Oct-19 22:00N 48°36' W 123°09'1 1.2
2017-Oct-19 21:30N 48°37' W 123°09'3 7.0
2017-Oct-19 21:00N 48°37' W 123°04'4 8.9
2017-Oct-19 20:30N 48°36' W 122°58'5 9.2
2017-Oct-19 20:00N 48°34' W 122°51'4 7.4
2017-Oct-19 19:30N 48°33' W 122°46'4 8.2
2017-Oct-19 19:00N 48°32' W 122°40'3 2.6
2017-Oct-19 18:02N 48°31' W 122°36'0 0.7
2017-Oct-19 17:59N 48°31' W 122°36'0 0.0
2017-Oct-19 17:05N 48°31' W 122°36'0 0.0
2017-Oct-19 16:53N 48°31' W 122°36'0 0.0
2017-Oct-19 16:29N 48°31' W 122°36'0 0.0
2017-Oct-19 10:46N 48°31' W 122°36'0 0.0
2017-Oct-19 10:28N 48°31' W 122°36'0 0.0
2017-Oct-19 09:01N 48°31' W 122°36'0 0.0
2017-Oct-19 07:46N 48°31' W 122°36'0 0.0
2017-Oct-19 05:19N 48°31' W 122°36'0 0.0
2017-Oct-19 04:58N 48°31' W 122°36'0 0.0
2017-Oct-19 03:25N 48°31' W 122°36'0 0.0
2017-Oct-19 02:49N 48°31' W 122°36'0 0.0
2017-Oct-19 02:25N 48°31' W 122°36'0 0.0
2017-Oct-19 01:43N 48°31' W 122°36'0 0.0
2017-Oct-18 11:34N 48°31' W 122°36'0 0.0
2017-Oct-18 11:28N 48°31' W 122°36'0 0.0
2017-Oct-18 10:58N 48°31' W 122°36'0 0.0
2017-Oct-18 08:10N 48°31' W 122°36'0 0.0
2017-Oct-18 07:58N 48°31' W 122°36'0 0.0
2017-Oct-18 07:28N 48°31' W 122°36'0 0.0
2017-Oct-18 06:58N 48°31' W 122°36'0 0.0
2017-Oct-18 02:40N 48°31' W 122°36'0 0.0
2017-Oct-18 02:22N 48°31' W 122°36'0 0.0
2017-Oct-18 01:31N 48°31' W 122°36'0 0.0
2017-Oct-18 01:13N 48°31' W 122°36'0 0.0
2017-Oct-18 00:43N 48°31' W 122°36'0 0.0
2017-Oct-17 23:40N 48°31' W 122°36'0 0.0
2017-Oct-17 20:13N 48°31' W 122°36'0 0.2
2017-Oct-17 19:59N 48°31' W 122°36'0 0.0
2017-Oct-17 19:25N 48°31' W 122°36'4 8.8
2017-Oct-17 19:00N 48°31' W 122°42'4 7.5
2017-Oct-17 18:30N 48°31' W 122°47'0 0.0
2017-Oct-17 18:00N 48°31' W 122°47'0 0.0
2017-Oct-17 17:30N 48°31' W 122°47'0 0.4
2017-Oct-17 17:00N 48°31' W 122°47'4 7.3
2017-Oct-17 16:30N 48°32' W 122°42'3 6.5
2017-Oct-17 16:00N 48°31' W 122°37'1 0.1
2017-Oct-17 02:30N 48°31' W 122°36'1 1.0
2017-Oct-17 02:00N 48°31' W 122°37'4 7.6
2017-Oct-17 01:30N 48°32' W 122°43'4 8.6
2017-Oct-17 01:00N 48°32' W 122°49'5 9.2
2017-Oct-17 00:30N 48°35' W 122°55'5 9.4
2017-Oct-17 00:00N 48°36' W 123°02'5 8.7
2017-Oct-16 23:28N 48°38' W 123°08'1 2.7
2017-Oct-16 23:01N 48°36' W 123°09'1 2.2
2017-Oct-16 22:28N 48°38' W 123°08'4 9.1
2017-Oct-16 22:00N 48°36' W 123°02'4 8.8
2017-Oct-16 21:30N 48°35' W 122°56'5 9.4
2017-Oct-16 21:00N 48°33' W 122°50'5 9.0
2017-Oct-16 20:30N 48°31' W 122°44'4 7.4
2017-Oct-16 20:00N 48°31' W 122°38'1 0.1
2017-Oct-16 11:22N 48°31' W 122°36'0 0.0
2017-Oct-15 10:28N 48°31' W 122°36'0 0.0
2017-Oct-15 09:58N 48°31' W 122°36'0 0.0
2017-Oct-15 09:22N 48°31' W 122°36'0 0.0
2017-Oct-15 08:10N 48°31' W 122°36'0 0.0
2017-Oct-15 04:40N 48°31' W 122°36'0 0.0
2017-Oct-15 02:28N 48°31' W 122°36'0 0.0
2017-Oct-14 15:58N 48°31' W 122°36'0 0.0
2017-Oct-14 11:22N 48°31' W 122°36'0 0.0
2017-Oct-14 10:58N 48°31' W 122°36'0 0.0
2017-Oct-14 10:28N 48°31' W 122°36'0 0.0
2017-Oct-14 09:58N 48°31' W 122°36'0 0.0
2017-Oct-14 05:40N 48°31' W 122°36'0 0.0
2017-Oct-14 05:10N 48°31' W 122°36'0 0.0
2017-Oct-14 00:19N 48°31' W 122°36'0 0.0
2017-Oct-13 23:49N 48°31' W 122°36'2 5.7
2017-Oct-13 23:30N 48°32' W 122°39'4 8.2
2017-Oct-13 23:00N 48°32' W 122°45'4 7.9
2017-Oct-13 22:30N 48°33' W 122°51'4 8.6
2017-Oct-13 22:00N 48°35' W 122°56'3 6.4
2017-Oct-13 21:30N 48°37' W 123°00'2 3.1
2017-Oct-13 21:00N 48°36' W 123°01'1 2.8
2017-Oct-13 20:30N 48°37' W 123°00'3 5.7
2017-Oct-13 20:00N 48°34' W 123°01'3 5.4
2017-Oct-13 19:30N 48°32' W 123°00'3 6.3
2017-Oct-13 19:00N 48°33' W 122°56'3 6.8
2017-Oct-13 18:30N 48°33' W 122°51'4 8.5
2017-Oct-13 18:00N 48°31' W 122°45'4 7.9
2017-Oct-13 17:29N 48°31' W 122°39'2 0.1
2017-Oct-12 23:47N 48°31' W 122°36'0 0.0
2017-Oct-12 23:17N 48°31' W 122°36'0 0.0
2017-Oct-12 22:04N 48°31' W 122°36'0 0.0
2017-Oct-12 21:55N 48°31' W 122°36'0 0.8
2017-Oct-12 21:25N 48°31' W 122°37'3 7.7
2017-Oct-12 21:00N 48°30' W 122°42'4 7.4
2017-Oct-12 20:30N 48°27' W 122°41'2 0.7
2017-Oct-12 18:04N 48°25' W 122°40'1 8.5
2017-Oct-12 18:00N 48°25' W 122°41'4 7.7
2017-Oct-12 17:30N 48°29' W 122°41'2 4.2
2017-Oct-12 17:00N 48°31' W 122°39'2 3.1
2017-Oct-12 16:30N 48°31' W 122°37'0 0.1
2017-Oct-12 16:00N 48°31' W 122°37'0 0.3
2017-Oct-12 14:31N 48°31' W 122°36'0 0.0
2017-Oct-12 06:19N 48°31' W 122°36'0 0.0
2017-Oct-12 00:31N 48°31' W 122°36'0 0.0
2017-Oct-12 00:29N 48°31' W 122°36'3 5.6
2017-Oct-12 00:00N 48°32' W 122°40'4 8.5
2017-Oct-11 23:30N 48°32' W 122°47'2 4.0
2017-Oct-11 23:00N 48°33' W 122°49'2 3.7
2017-Oct-11 22:30N 48°35' W 122°49'2 4.9
2017-Oct-11 22:00N 48°34' W 122°45'4 7.1
2017-Oct-11 21:30N 48°32' W 122°41'3 4.3
2017-Oct-11 20:42N 48°31' W 122°36'1 6.7
2017-Oct-11 20:30N 48°31' W 122°38'4 8.6
2017-Oct-11 20:00N 48°32' W 122°45'4 8.0
2017-Oct-11 19:30N 48°33' W 122°51'4 7.0
2017-Oct-11 19:00N 48°33' W 122°56'3 6.2
2017-Oct-11 18:30N 48°32' W 123°00'0 0.0
2017-Oct-11 18:00N 48°32' W 123°00'0 0.0
2017-Oct-11 17:30N 48°32' W 123°00'0 0.0
2017-Oct-11 17:00N 48°32' W 123°00'8 0.5
2017-Oct-11 00:00N 48°35' W 122°49'0 0.6
2017-Oct-10 23:30N 48°35' W 122°49'2 3.7
2017-Oct-10 23:00N 48°36' W 122°47'4 8.0
2017-Oct-10 22:30N 48°35' W 122°41'4 7.9
2017-Oct-10 22:00N 48°31' W 122°39'1 2.5
2017-Oct-10 21:29N 48°31' W 122°37'3 6.2
2017-Oct-10 21:00N 48°34' W 122°40'4 7.5
2017-Oct-10 20:30N 48°37' W 122°42'2 4.7
2017-Oct-10 20:00N 48°36' W 122°45'  

Dump ship's entire track history